sensor_id;sensor_type;location;lat;lon;timestamp;P1;durP1;ratioP1;P2;durP2;ratioP2
1370;SDS011;14306;49.942;11.570;2023-05-10T00:00:48;5.20;;;3.60;;
1370;SDS011;14306;49.942;11.570;2023-05-10T00:03:16;7.97;;;3.63;;
1370;SDS011;14306;49.942;11.570;2023-05-10T00:05:44;5.93;;;3.60;;
1370;SDS011;14306;49.942;11.570;2023-05-10T00:08:13;4.40;;;3.57;;
1370;SDS011;14306;49.942;11.570;2023-05-10T00:10:41;3.47;;;3.17;;
1370;SDS011;14306;49.942;11.570;2023-05-10T00:13:11;6.50;;;3.30;;
1370;SDS011;14306;49.942;11.570;2023-05-10T00:15:40;3.83;;;3.43;;
1370;SDS011;14306;49.942;11.570;2023-05-10T00:18:08;5.30;;;4.03;;
1370;SDS011;14306;49.942;11.570;2023-05-10T00:20:36;6.90;;;3.20;;
1370;SDS011;14306;49.942;11.570;2023-05-10T00:23:05;5.37;;;3.00;;
1370;SDS011;14306;49.942;11.570;2023-05-10T00:25:34;6.37;;;3.90;;
1370;SDS011;14306;49.942;11.570;2023-05-10T00:28:02;7.40;;;3.67;;
1370;SDS011;14306;49.942;11.570;2023-05-10T00:30:32;3.53;;;3.23;;
1370;SDS011;14306;49.942;11.570;2023-05-10T00:33:01;4.57;;;3.37;;
1370;SDS011;14306;49.942;11.570;2023-05-10T00:35:29;4.33;;;3.33;;
1370;SDS011;14306;49.942;11.570;2023-05-10T00:37:58;4.47;;;3.60;;
1370;SDS011;14306;49.942;11.570;2023-05-10T00:40:26;4.93;;;3.73;;
1370;SDS011;14306;49.942;11.570;2023-05-10T00:42:55;5.07;;;3.97;;
1370;SDS011;14306;49.942;11.570;2023-05-10T00:45:24;3.50;;;3.20;;
1370;SDS011;14306;49.942;11.570;2023-05-10T00:47:53;4.17;;;3.03;;
1370;SDS011;14306;49.942;11.570;2023-05-10T00:50:22;4.63;;;3.43;;
1370;SDS011;14306;49.942;11.570;2023-05-10T00:52:52;4.10;;;3.47;;
1370;SDS011;14306;49.942;11.570;2023-05-10T00:55:20;4.60;;;3.40;;
1370;SDS011;14306;49.942;11.570;2023-05-10T00:57:49;6.50;;;3.30;;
1370;SDS011;14306;49.942;11.570;2023-05-10T01:00:17;5.80;;;3.60;;
1370;SDS011;14306;49.942;11.570;2023-05-10T01:02:46;3.40;;;3.00;;
1370;SDS011;14306;49.942;11.570;2023-05-10T01:05:18;6.33;;;3.77;;
1370;SDS011;14306;49.942;11.570;2023-05-10T01:07:46;6.27;;;3.53;;
1370;SDS011;14306;49.942;11.570;2023-05-10T01:10:15;5.30;;;3.50;;
1370;SDS011;14306;49.942;11.570;2023-05-10T01:12:45;6.27;;;4.00;;
1370;SDS011;14306;49.942;11.570;2023-05-10T01:15:14;4.90;;;4.10;;
1370;SDS011;14306;49.942;11.570;2023-05-10T01:17:45;4.23;;;3.30;;
1370;SDS011;14306;49.942;11.570;2023-05-10T01:20:15;5.07;;;3.50;;
1370;SDS011;14306;49.942;11.570;2023-05-10T01:22:54;8.57;;;3.90;;
1370;SDS011;14306;49.942;11.570;2023-05-10T01:28:43;4.80;;;4.30;;
1370;SDS011;14306;49.942;11.570;2023-05-10T01:31:40;3.80;;;3.40;;
1370;SDS011;14306;49.942;11.570;2023-05-10T01:34:35;4.43;;;4.03;;
1370;SDS011;14306;49.942;11.570;2023-05-10T01:37:10;3.67;;;3.23;;
1370;SDS011;14306;49.942;11.570;2023-05-10T01:39:47;6.70;;;4.10;;
1370;SDS011;14306;49.942;11.570;2023-05-10T01:42:21;7.67;;;3.60;;
1370;SDS011;14306;49.942;11.570;2023-05-10T01:44:54;5.53;;;3.60;;
1370;SDS011;14306;49.942;11.570;2023-05-10T01:47:29;11.60;;;3.80;;
1370;SDS011;14306;49.942;11.570;2023-05-10T01:50:03;4.40;;;3.30;;
1370;SDS011;14306;49.942;11.570;2023-05-10T01:52:36;8.43;;;3.50;;
1370;SDS011;14306;49.942;11.570;2023-05-10T01:55:09;11.23;;;3.63;;
1370;SDS011;14306;49.942;11.570;2023-05-10T01:57:42;5.10;;;3.13;;
1370;SDS011;14306;49.942;11.570;2023-05-10T02:00:13;4.53;;;4.13;;
1370;SDS011;14306;49.942;11.570;2023-05-10T02:02:46;4.40;;;4.00;;
1370;SDS011;14306;49.942;11.570;2023-05-10T02:05:16;6.93;;;4.10;;
1370;SDS011;14306;49.942;11.570;2023-05-10T02:07:46;5.83;;;3.83;;
1370;SDS011;14306;49.942;11.570;2023-05-10T02:10:15;3.97;;;3.60;;
1370;SDS011;14306;49.942;11.570;2023-05-10T02:12:46;4.77;;;3.50;;
1370;SDS011;14306;49.942;11.570;2023-05-10T02:15:17;5.63;;;3.47;;
1370;SDS011;14306;49.942;11.570;2023-05-10T02:17:50;5.00;;;3.63;;
1370;SDS011;14306;49.942;11.570;2023-05-10T02:20:21;5.77;;;3.67;;
1370;SDS011;14306;49.942;11.570;2023-05-10T02:22:50;5.50;;;3.70;;
1370;SDS011;14306;49.942;11.570;2023-05-10T02:25:21;4.07;;;2.90;;
1370;SDS011;14306;49.942;11.570;2023-05-10T02:27:51;4.20;;;3.30;;
1370;SDS011;14306;49.942;11.570;2023-05-10T02:30:22;4.70;;;3.87;;
1370;SDS011;14306;49.942;11.570;2023-05-10T02:32:53;6.10;;;3.63;;
1370;SDS011;14306;49.942;11.570;2023-05-10T02:35:22;5.70;;;3.47;;
1370;SDS011;14306;49.942;11.570;2023-05-10T02:37:53;4.10;;;3.50;;
1370;SDS011;14306;49.942;11.570;2023-05-10T02:40:22;7.33;;;3.67;;
1370;SDS011;14306;49.942;11.570;2023-05-10T02:42:54;9.33;;;3.60;;
1370;SDS011;14306;49.942;11.570;2023-05-10T02:45:24;12.23;;;5.37;;
1370;SDS011;14306;49.942;11.570;2023-05-10T02:47:58;5.23;;;4.53;;
1370;SDS011;14306;49.942;11.570;2023-05-10T02:50:27;6.30;;;3.80;;
1370;SDS011;14306;49.942;11.570;2023-05-10T02:52:59;5.97;;;4.43;;
1370;SDS011;14306;49.942;11.570;2023-05-10T02:55:32;6.80;;;3.90;;
1370;SDS011;14306;49.942;11.570;2023-05-10T02:58:05;5.97;;;4.17;;
1370;SDS011;14306;49.942;11.570;2023-05-10T03:00:34;5.90;;;4.30;;
1370;SDS011;14306;49.942;11.570;2023-05-10T03:03:05;4.80;;;3.70;;
1370;SDS011;14306;49.942;11.570;2023-05-10T03:05:34;6.90;;;4.37;;
1370;SDS011;14306;49.942;11.570;2023-05-10T03:08:03;5.10;;;4.20;;
1370;SDS011;14306;49.942;11.570;2023-05-10T03:10:33;9.53;;;4.90;;
1370;SDS011;14306;49.942;11.570;2023-05-10T03:13:06;6.20;;;4.27;;
1370;SDS011;14306;49.942;11.570;2023-05-10T03:15:47;4.93;;;4.20;;
1370;SDS011;14306;49.942;11.570;2023-05-10T03:18:28;6.20;;;3.70;;
1370;SDS011;14306;49.942;11.570;2023-05-10T03:21:02;5.90;;;4.50;;
1370;SDS011;14306;49.942;11.570;2023-05-10T03:23:34;5.40;;;4.17;;
1370;SDS011;14306;49.942;11.570;2023-05-10T03:26:04;7.53;;;4.03;;
1370;SDS011;14306;49.942;11.570;2023-05-10T03:28:33;5.50;;;4.27;;
1370;SDS011;14306;49.942;11.570;2023-05-10T03:31:03;6.67;;;3.70;;
1370;SDS011;14306;49.942;11.570;2023-05-10T03:33:35;5.20;;;3.67;;
1370;SDS011;14306;49.942;11.570;2023-05-10T03:36:03;5.27;;;4.37;;
1370;SDS011;14306;49.942;11.570;2023-05-10T03:38:32;10.00;;;4.63;;
1370;SDS011;14306;49.942;11.570;2023-05-10T03:41:02;5.27;;;4.17;;
1370;SDS011;14306;49.942;11.570;2023-05-10T03:43:30;5.47;;;4.40;;
1370;SDS011;14306;49.942;11.570;2023-05-10T03:45:58;5.80;;;4.60;;
1370;SDS011;14306;49.942;11.570;2023-05-10T03:48:30;5.17;;;4.40;;
1370;SDS011;14306;49.942;11.570;2023-05-10T03:51:00;6.50;;;4.17;;
1370;SDS011;14306;49.942;11.570;2023-05-10T03:53:29;5.50;;;4.20;;
1370;SDS011;14306;49.942;11.570;2023-05-10T03:55:58;6.03;;;4.27;;
1370;SDS011;14306;49.942;11.570;2023-05-10T03:58:26;4.43;;;4.00;;
1370;SDS011;14306;49.942;11.570;2023-05-10T04:00:55;5.50;;;4.40;;
1370;SDS011;14306;49.942;11.570;2023-05-10T04:03:24;8.20;;;4.47;;
1370;SDS011;14306;49.942;11.570;2023-05-10T04:05:58;8.63;;;4.67;;
1370;SDS011;14306;49.942;11.570;2023-05-10T04:08:30;6.90;;;4.60;;
1370;SDS011;14306;49.942;11.570;2023-05-10T04:11:05;6.03;;;4.13;;
1370;SDS011;14306;49.942;11.570;2023-05-10T04:13:35;14.33;;;4.87;;
1370;SDS011;14306;49.942;11.570;2023-05-10T04:16:05;5.13;;;4.63;;
1370;SDS011;14306;49.942;11.570;2023-05-10T04:18:33;9.50;;;4.40;;
1370;SDS011;14306;49.942;11.570;2023-05-10T04:21:03;5.93;;;4.97;;
1370;SDS011;14306;49.942;11.570;2023-05-10T04:23:33;6.30;;;4.60;;
1370;SDS011;14306;49.942;11.570;2023-05-10T04:26:01;10.80;;;5.73;;
1370;SDS011;14306;49.942;11.570;2023-05-10T04:28:31;12.00;;;5.13;;
1370;SDS011;14306;49.942;11.570;2023-05-10T04:31:00;5.40;;;4.60;;
1370;SDS011;14306;49.942;11.570;2023-05-10T04:33:30;11.13;;;5.53;;
1370;SDS011;14306;49.942;11.570;2023-05-10T04:36:00;8.00;;;4.77;;
1370;SDS011;14306;49.942;11.570;2023-05-10T04:38:29;9.03;;;6.07;;
1370;SDS011;14306;49.942;11.570;2023-05-10T04:41:04;9.70;;;5.73;;
1370;SDS011;14306;49.942;11.570;2023-05-10T04:43:34;8.87;;;5.30;;
1370;SDS011;14306;49.942;11.570;2023-05-10T04:46:03;5.67;;;5.13;;
1370;SDS011;14306;49.942;11.570;2023-05-10T04:48:33;9.00;;;5.23;;
1370;SDS011;14306;49.942;11.570;2023-05-10T04:51:03;6.67;;;5.93;;
1370;SDS011;14306;49.942;11.570;2023-05-10T04:53:37;10.37;;;6.90;;
1370;SDS011;14306;49.942;11.570;2023-05-10T04:56:15;8.03;;;6.00;;
1370;SDS011;14306;49.942;11.570;2023-05-10T04:58:44;7.30;;;5.50;;
1370;SDS011;14306;49.942;11.570;2023-05-10T05:01:18;8.00;;;6.43;;
1370;SDS011;14306;49.942;11.570;2023-05-10T05:03:47;9.37;;;6.97;;
1370;SDS011;14306;49.942;11.570;2023-05-10T05:06:16;9.10;;;6.83;;
1370;SDS011;14306;49.942;11.570;2023-05-10T05:08:46;12.30;;;7.23;;
1370;SDS011;14306;49.942;11.570;2023-05-10T05:11:17;14.40;;;7.20;;
1370;SDS011;14306;49.942;11.570;2023-05-10T05:13:48;9.53;;;6.80;;
1370;SDS011;14306;49.942;11.570;2023-05-10T05:16:18;11.80;;;8.63;;
1370;SDS011;14306;49.942;11.570;2023-05-10T05:18:48;11.13;;;7.50;;
1370;SDS011;14306;49.942;11.570;2023-05-10T05:21:17;13.90;;;8.23;;
1370;SDS011;14306;49.942;11.570;2023-05-10T05:23:49;11.73;;;8.33;;
1370;SDS011;14306;49.942;11.570;2023-05-10T05:26:23;18.90;;;9.80;;
1370;SDS011;14306;49.942;11.570;2023-05-10T05:28:53;14.20;;;8.97;;
1370;SDS011;14306;49.942;11.570;2023-05-10T05:31:22;17.00;;;9.43;;
1370;SDS011;14306;49.942;11.570;2023-05-10T05:33:51;11.70;;;8.10;;
1370;SDS011;14306;49.942;11.570;2023-05-10T05:36:21;10.90;;;7.57;;
1370;SDS011;14306;49.942;11.570;2023-05-10T05:38:49;13.23;;;8.43;;
1370;SDS011;14306;49.942;11.570;2023-05-10T05:41:19;13.20;;;8.63;;
1370;SDS011;14306;49.942;11.570;2023-05-10T05:43:50;10.70;;;8.30;;
1370;SDS011;14306;49.942;11.570;2023-05-10T05:46:19;16.50;;;10.23;;
1370;SDS011;14306;49.942;11.570;2023-05-10T05:48:48;12.17;;;9.17;;
1370;SDS011;14306;49.942;11.570;2023-05-10T05:51:17;15.87;;;10.47;;
1370;SDS011;14306;49.942;11.570;2023-05-10T05:53:46;17.60;;;11.27;;
1370;SDS011;14306;49.942;11.570;2023-05-10T05:56:16;12.60;;;9.40;;
1370;SDS011;14306;49.942;11.570;2023-05-10T05:58:52;14.23;;;10.00;;
1370;SDS011;14306;49.942;11.570;2023-05-10T06:01:21;17.77;;;11.37;;
1370;SDS011;14306;49.942;11.570;2023-05-10T06:03:50;15.93;;;9.37;;
1370;SDS011;14306;49.942;11.570;2023-05-10T06:06:19;12.40;;;9.13;;
1370;SDS011;14306;49.942;11.570;2023-05-10T06:08:48;15.63;;;9.43;;
1370;SDS011;14306;49.942;11.570;2023-05-10T06:11:17;14.80;;;10.00;;
1370;SDS011;14306;49.942;11.570;2023-05-10T06:13:46;14.43;;;10.20;;
1370;SDS011;14306;49.942;11.570;2023-05-10T06:16:19;13.00;;;9.90;;
1370;SDS011;14306;49.942;11.570;2023-05-10T06:18:47;13.90;;;9.73;;
1370;SDS011;14306;49.942;11.570;2023-05-10T06:21:16;14.23;;;10.17;;
1370;SDS011;14306;49.942;11.570;2023-05-10T06:23:45;17.33;;;10.23;;
1370;SDS011;14306;49.942;11.570;2023-05-10T06:26:14;14.33;;;9.97;;
1370;SDS011;14306;49.942;11.570;2023-05-10T06:28:43;14.77;;;9.90;;
1370;SDS011;14306;49.942;11.570;2023-05-10T06:31:11;9.70;;;7.83;;
1370;SDS011;14306;49.942;11.570;2023-05-10T06:33:41;10.47;;;8.03;;
1370;SDS011;14306;49.942;11.570;2023-05-10T06:36:10;11.23;;;8.53;;
1370;SDS011;14306;49.942;11.570;2023-05-10T06:38:39;10.93;;;9.00;;
1370;SDS011;14306;49.942;11.570;2023-05-10T06:41:08;9.47;;;8.03;;
1370;SDS011;14306;49.942;11.570;2023-05-10T06:43:38;12.07;;;7.50;;
1370;SDS011;14306;49.942;11.570;2023-05-10T06:46:07;13.03;;;8.80;;
1370;SDS011;14306;49.942;11.570;2023-05-10T06:48:36;10.27;;;7.90;;
1370;SDS011;14306;49.942;11.570;2023-05-10T06:51:07;13.40;;;8.90;;
1370;SDS011;14306;49.942;11.570;2023-05-10T06:53:36;11.57;;;7.90;;
1370;SDS011;14306;49.942;11.570;2023-05-10T06:56:04;14.03;;;8.90;;
1370;SDS011;14306;49.942;11.570;2023-05-10T06:58:34;10.60;;;8.67;;
1370;SDS011;14306;49.942;11.570;2023-05-10T07:01:02;12.27;;;9.20;;
1370;SDS011;14306;49.942;11.570;2023-05-10T07:03:31;12.40;;;8.13;;
1370;SDS011;14306;49.942;11.570;2023-05-10T07:06:01;11.63;;;8.43;;
1370;SDS011;14306;49.942;11.570;2023-05-10T07:08:33;18.33;;;8.00;;
1370;SDS011;14306;49.942;11.570;2023-05-10T07:11:02;9.30;;;7.10;;
1370;SDS011;14306;49.942;11.570;2023-05-10T07:13:31;17.63;;;8.77;;
1370;SDS011;14306;49.942;11.570;2023-05-10T07:16:00;15.20;;;9.47;;
1370;SDS011;14306;49.942;11.570;2023-05-10T07:18:31;11.57;;;9.93;;
1370;SDS011;14306;49.942;11.570;2023-05-10T07:21:00;9.50;;;7.90;;
1370;SDS011;14306;49.942;11.570;2023-05-10T07:23:30;11.40;;;6.83;;
1370;SDS011;14306;49.942;11.570;2023-05-10T07:26:00;12.40;;;6.80;;
1370;SDS011;14306;49.942;11.570;2023-05-10T07:28:29;11.17;;;6.93;;
1370;SDS011;14306;49.942;11.570;2023-05-10T07:30:58;9.80;;;7.50;;
1370;SDS011;14306;49.942;11.570;2023-05-10T07:33:28;8.50;;;6.23;;
1370;SDS011;14306;49.942;11.570;2023-05-10T07:35:59;7.67;;;6.67;;
1370;SDS011;14306;49.942;11.570;2023-05-10T07:38:29;8.57;;;6.53;;
1370;SDS011;14306;49.942;11.570;2023-05-10T07:40:58;11.40;;;6.90;;
1370;SDS011;14306;49.942;11.570;2023-05-10T07:43:29;8.00;;;6.27;;
1370;SDS011;14306;49.942;11.570;2023-05-10T07:45:59;11.80;;;7.07;;
1370;SDS011;14306;49.942;11.570;2023-05-10T07:48:27;8.77;;;6.80;;
1370;SDS011;14306;49.942;11.570;2023-05-10T07:50:56;8.80;;;6.93;;
1370;SDS011;14306;49.942;11.570;2023-05-10T07:53:26;11.00;;;6.60;;
1370;SDS011;14306;49.942;11.570;2023-05-10T07:55:57;7.40;;;5.60;;
1370;SDS011;14306;49.942;11.570;2023-05-10T07:58:26;6.27;;;5.03;;
1370;SDS011;14306;49.942;11.570;2023-05-10T08:00:56;8.93;;;6.10;;
1370;SDS011;14306;49.942;11.570;2023-05-10T08:03:25;8.43;;;7.37;;
1370;SDS011;14306;49.942;11.570;2023-05-10T08:05:54;8.90;;;6.20;;
1370;SDS011;14306;49.942;11.570;2023-05-10T08:08:23;12.13;;;6.80;;
1370;SDS011;14306;49.942;11.570;2023-05-10T08:10:52;6.10;;;5.50;;
1370;SDS011;14306;49.942;11.570;2023-05-10T08:13:22;6.40;;;5.13;;
1370;SDS011;14306;49.942;11.570;2023-05-10T08:15:51;5.80;;;5.23;;
1370;SDS011;14306;49.942;11.570;2023-05-10T08:18:21;8.50;;;6.17;;
1370;SDS011;14306;49.942;11.570;2023-05-10T08:20:51;9.83;;;6.97;;
1370;SDS011;14306;49.942;11.570;2023-05-10T08:23:20;4.57;;;4.07;;
1370;SDS011;14306;49.942;11.570;2023-05-10T08:25:49;5.13;;;4.63;;
1370;SDS011;14306;49.942;11.570;2023-05-10T08:28:18;6.13;;;4.40;;
1370;SDS011;14306;49.942;11.570;2023-05-10T08:30:46;4.67;;;4.20;;
1370;SDS011;14306;49.942;11.570;2023-05-10T08:33:15;7.47;;;5.97;;
1370;SDS011;14306;49.942;11.570;2023-05-10T08:35:47;7.37;;;4.77;;
1370;SDS011;14306;49.942;11.570;2023-05-10T08:38:16;5.97;;;4.50;;
1370;SDS011;14306;49.942;11.570;2023-05-10T08:40:45;7.10;;;5.00;;
1370;SDS011;14306;49.942;11.570;2023-05-10T08:43:18;7.63;;;4.27;;
1370;SDS011;14306;49.942;11.570;2023-05-10T08:45:46;13.10;;;5.60;;
1370;SDS011;14306;49.942;11.570;2023-05-10T08:48:16;6.00;;;4.87;;
1370;SDS011;14306;49.942;11.570;2023-05-10T08:50:46;7.40;;;5.20;;
1370;SDS011;14306;49.942;11.570;2023-05-10T08:53:17;9.60;;;4.27;;
1370;SDS011;14306;49.942;11.570;2023-05-10T08:55:52;4.07;;;3.00;;
1370;SDS011;14306;49.942;11.570;2023-05-10T08:58:21;4.03;;;3.57;;
1370;SDS011;14306;49.942;11.570;2023-05-10T09:00:49;5.30;;;2.90;;
1370;SDS011;14306;49.942;11.570;2023-05-10T09:03:19;3.27;;;2.97;;
1370;SDS011;14306;49.942;11.570;2023-05-10T09:05:50;3.23;;;2.93;;
1370;SDS011;14306;49.942;11.570;2023-05-10T09:08:20;4.93;;;3.43;;
1370;SDS011;14306;49.942;11.570;2023-05-10T09:10:51;5.57;;;3.97;;
1370;SDS011;14306;49.942;11.570;2023-05-10T09:13:21;2.03;;;1.93;;
1370;SDS011;14306;49.942;11.570;2023-05-10T09:15:50;2.60;;;2.00;;
1370;SDS011;14306;49.942;11.570;2023-05-10T09:18:21;1.97;;;1.77;;
1370;SDS011;14306;49.942;11.570;2023-05-10T09:20:54;4.43;;;1.90;;
1370;SDS011;14306;49.942;11.570;2023-05-10T09:23:23;3.60;;;1.93;;
1370;SDS011;14306;49.942;11.570;2023-05-10T09:26:02;1.80;;;1.40;;
1370;SDS011;14306;49.942;11.570;2023-05-10T09:28:32;2.13;;;1.10;;
1370;SDS011;14306;49.942;11.570;2023-05-10T09:31:01;2.13;;;1.30;;
1370;SDS011;14306;49.942;11.570;2023-05-10T09:33:29;1.37;;;0.90;;
1370;SDS011;14306;49.942;11.570;2023-05-10T09:36:15;2.47;;;1.20;;
1370;SDS011;14306;49.942;11.570;2023-05-10T09:38:52;1.93;;;1.10;;
1370;SDS011;14306;49.942;11.570;2023-05-10T09:41:22;1.30;;;0.87;;
1370;SDS011;14306;49.942;11.570;2023-05-10T09:43:54;8.70;;;1.80;;
1370;SDS011;14306;49.942;11.570;2023-05-10T09:46:24;2.00;;;1.53;;
1370;SDS011;14306;49.942;11.570;2023-05-10T09:48:53;4.70;;;1.30;;
1370;SDS011;14306;49.942;11.570;2023-05-10T09:51:23;1.03;;;0.80;;
1370;SDS011;14306;49.942;11.570;2023-05-10T09:54:08;3.00;;;1.80;;
1370;SDS011;14306;49.942;11.570;2023-05-10T09:56:38;1.87;;;0.80;;
1370;SDS011;14306;49.942;11.570;2023-05-10T09:59:08;1.53;;;0.80;;
1370;SDS011;14306;49.942;11.570;2023-05-10T10:01:38;1.73;;;1.00;;
1370;SDS011;14306;49.942;11.570;2023-05-10T10:04:08;3.03;;;1.30;;
1370;SDS011;14306;49.942;11.570;2023-05-10T10:06:42;1.00;;;0.80;;
1370;SDS011;14306;49.942;11.570;2023-05-10T10:09:14;5.20;;;1.10;;
1370;SDS011;14306;49.942;11.570;2023-05-10T10:11:43;1.03;;;0.63;;
1370;SDS011;14306;49.942;11.570;2023-05-10T10:14:12;1.40;;;0.93;;
1370;SDS011;14306;49.942;11.570;2023-05-10T10:16:41;0.70;;;0.70;;
1370;SDS011;14306;49.942;11.570;2023-05-10T10:19:29;2.63;;;1.60;;
1370;SDS011;14306;49.942;11.570;2023-05-10T10:22:03;3.13;;;2.20;;
1370;SDS011;14306;49.942;11.570;2023-05-10T10:24:31;6.43;;;2.97;;
1370;SDS011;14306;49.942;11.570;2023-05-10T10:29:54;5.90;;;0.97;;
1370;SDS011;14306;49.942;11.570;2023-05-10T10:32:33;2.60;;;0.90;;
1370;SDS011;14306;49.942;11.570;2023-05-10T10:35:13;3.23;;;1.00;;
1370;SDS011;14306;49.942;11.570;2023-05-10T10:37:45;3.10;;;1.50;;
1370;SDS011;14306;49.942;11.570;2023-05-10T10:40:25;1.93;;;1.00;;
1370;SDS011;14306;49.942;11.570;2023-05-10T10:42:58;2.53;;;1.20;;
1370;SDS011;14306;49.942;11.570;2023-05-10T10:46:08;2.00;;;0.90;;
1370;SDS011;14306;49.942;11.570;2023-05-10T10:48:41;0.80;;;0.70;;
1370;SDS011;14306;49.942;11.570;2023-05-10T10:51:10;4.27;;;1.77;;
1370;SDS011;14306;49.942;11.570;2023-05-10T10:53:43;0.73;;;0.73;;
1370;SDS011;14306;49.942;11.570;2023-05-10T10:56:14;1.17;;;0.80;;
1370;SDS011;14306;49.942;11.570;2023-05-10T10:58:48;2.13;;;1.33;;
1370;SDS011;14306;49.942;11.570;2023-05-10T11:01:20;0.90;;;0.80;;
1370;SDS011;14306;49.942;11.570;2023-05-10T11:06:45;1.60;;;0.67;;
1370;SDS011;14306;49.942;11.570;2023-05-10T11:09:16;3.23;;;0.70;;
1370;SDS011;14306;49.942;11.570;2023-05-10T11:11:48;3.73;;;0.80;;
1370;SDS011;14306;49.942;11.570;2023-05-10T11:14:20;1.57;;;0.80;;
1370;SDS011;14306;49.942;11.570;2023-05-10T11:16:49;1.27;;;0.90;;
1370;SDS011;14306;49.942;11.570;2023-05-10T11:19:19;1.47;;;1.00;;
1370;SDS011;14306;49.942;11.570;2023-05-10T11:21:50;1.67;;;0.90;;
1370;SDS011;14306;49.942;11.570;2023-05-10T11:24:41;2.67;;;1.00;;
1370;SDS011;14306;49.942;11.570;2023-05-10T11:27:27;3.60;;;1.57;;
1370;SDS011;14306;49.942;11.570;2023-05-10T11:29:56;4.60;;;2.20;;
1370;SDS011;14306;49.942;11.570;2023-05-10T11:32:25;3.87;;;1.47;;
1370;SDS011;14306;49.942;11.570;2023-05-10T11:34:55;1.93;;;1.60;;
1370;SDS011;14306;49.942;11.570;2023-05-10T11:37:24;2.97;;;1.50;;
1370;SDS011;14306;49.942;11.570;2023-05-10T11:40:00;7.17;;;1.90;;
1370;SDS011;14306;49.942;11.570;2023-05-10T11:42:30;7.23;;;1.90;;
1370;SDS011;14306;49.942;11.570;2023-05-10T11:45:00;2.10;;;1.47;;
1370;SDS011;14306;49.942;11.570;2023-05-10T11:47:28;5.70;;;1.73;;
1370;SDS011;14306;49.942;11.570;2023-05-10T11:49:57;4.20;;;1.77;;
1370;SDS011;14306;49.942;11.570;2023-05-10T11:52:26;5.43;;;1.77;;
1370;SDS011;14306;49.942;11.570;2023-05-10T11:54:55;3.43;;;1.67;;
1370;SDS011;14306;49.942;11.570;2023-05-10T11:57:26;5.50;;;2.10;;
1370;SDS011;14306;49.942;11.570;2023-05-10T11:59:56;2.60;;;1.90;;
1370;SDS011;14306;49.942;11.570;2023-05-10T12:02:25;2.80;;;1.47;;
1370;SDS011;14306;49.942;11.570;2023-05-10T12:04:54;4.40;;;2.10;;
1370;SDS011;14306;49.942;11.570;2023-05-10T12:07:25;2.13;;;1.93;;
1370;SDS011;14306;49.942;11.570;2023-05-10T12:10:06;1.67;;;1.57;;
1370;SDS011;14306;49.942;11.570;2023-05-10T12:12:38;2.13;;;1.93;;
1370;SDS011;14306;49.942;11.570;2023-05-10T12:15:12;3.83;;;2.20;;
1370;SDS011;14306;49.942;11.570;2023-05-10T12:17:46;1.70;;;1.53;;
1370;SDS011;14306;49.942;11.570;2023-05-10T12:20:16;4.87;;;1.60;;
1370;SDS011;14306;49.942;11.570;2023-05-10T12:22:46;1.93;;;1.73;;
1370;SDS011;14306;49.942;11.570;2023-05-10T12:25:17;3.50;;;1.07;;
1370;SDS011;14306;49.942;11.570;2023-05-10T12:27:52;1.93;;;1.40;;
1370;SDS011;14306;49.942;11.570;2023-05-10T12:30:23;5.33;;;2.07;;
1370;SDS011;14306;49.942;11.570;2023-05-10T12:32:52;1.40;;;1.20;;
1370;SDS011;14306;49.942;11.570;2023-05-10T12:35:21;2.97;;;1.10;;
1370;SDS011;14306;49.942;11.570;2023-05-10T12:37:51;1.23;;;1.10;;
1370;SDS011;14306;49.942;11.570;2023-05-10T12:40:19;4.50;;;1.20;;
1370;SDS011;14306;49.942;11.570;2023-05-10T12:42:48;2.33;;;1.30;;
1370;SDS011;14306;49.942;11.570;2023-05-10T12:45:18;3.10;;;1.70;;
1370;SDS011;14306;49.942;11.570;2023-05-10T12:47:47;1.23;;;1.10;;
1370;SDS011;14306;49.942;11.570;2023-05-10T12:50:15;2.63;;;1.37;;
1370;SDS011;14306;49.942;11.570;2023-05-10T12:52:44;3.57;;;1.20;;
1370;SDS011;14306;49.942;11.570;2023-05-10T12:55:13;5.63;;;1.10;;
1370;SDS011;14306;49.942;11.570;2023-05-10T12:57:42;2.93;;;1.07;;
1370;SDS011;14306;49.942;11.570;2023-05-10T13:00:11;1.20;;;1.00;;
1370;SDS011;14306;49.942;11.570;2023-05-10T13:02:42;5.90;;;1.53;;
1370;SDS011;14306;49.942;11.570;2023-05-10T13:05:11;2.47;;;0.80;;
1370;SDS011;14306;49.942;11.570;2023-05-10T13:07:40;1.03;;;0.97;;
1370;SDS011;14306;49.942;11.570;2023-05-10T13:10:10;0.97;;;0.87;;
1370;SDS011;14306;49.942;11.570;2023-05-10T13:12:39;1.83;;;1.00;;
1370;SDS011;14306;49.942;11.570;2023-05-10T13:15:07;1.67;;;1.00;;
1370;SDS011;14306;49.942;11.570;2023-05-10T13:17:36;3.10;;;1.40;;
1370;SDS011;14306;49.942;11.570;2023-05-10T13:20:09;1.13;;;1.00;;
1370;SDS011;14306;49.942;11.570;2023-05-10T13:22:38;0.90;;;0.80;;
1370;SDS011;14306;49.942;11.570;2023-05-10T13:25:08;4.57;;;1.33;;
1370;SDS011;14306;49.942;11.570;2023-05-10T13:27:37;2.13;;;1.10;;
1370;SDS011;14306;49.942;11.570;2023-05-10T13:30:06;1.27;;;0.70;;
1370;SDS011;14306;49.942;11.570;2023-05-10T13:32:35;1.10;;;1.00;;
1370;SDS011;14306;49.942;11.570;2023-05-10T13:35:05;1.00;;;0.90;;
1370;SDS011;14306;49.942;11.570;2023-05-10T13:37:35;1.73;;;1.40;;
1370;SDS011;14306;49.942;11.570;2023-05-10T13:40:04;1.03;;;0.73;;
1370;SDS011;14306;49.942;11.570;2023-05-10T13:42:34;1.57;;;0.90;;
1370;SDS011;14306;49.942;11.570;2023-05-10T13:45:02;4.70;;;1.10;;
1370;SDS011;14306;49.942;11.570;2023-05-10T13:47:31;4.33;;;1.20;;
1370;SDS011;14306;49.942;11.570;2023-05-10T13:50:00;3.63;;;1.30;;
1370;SDS011;14306;49.942;11.570;2023-05-10T13:52:29;3.17;;;1.10;;
1370;SDS011;14306;49.942;11.570;2023-05-10T13:54:59;0.93;;;0.80;;
1370;SDS011;14306;49.942;11.570;2023-05-10T13:57:28;1.83;;;1.00;;
1370;SDS011;14306;49.942;11.570;2023-05-10T13:59:56;1.13;;;0.87;;
1370;SDS011;14306;49.942;11.570;2023-05-10T14:02:25;1.37;;;0.87;;
1370;SDS011;14306;49.942;11.570;2023-05-10T14:04:54;3.53;;;1.20;;
1370;SDS011;14306;49.942;11.570;2023-05-10T14:07:23;1.10;;;1.00;;
1370;SDS011;14306;49.942;11.570;2023-05-10T14:09:51;1.50;;;1.40;;
1370;SDS011;14306;49.942;11.570;2023-05-10T14:12:21;1.20;;;0.80;;
1370;SDS011;14306;49.942;11.570;2023-05-10T14:14:49;0.70;;;0.70;;
1370;SDS011;14306;49.942;11.570;2023-05-10T14:17:18;5.10;;;1.10;;
1370;SDS011;14306;49.942;11.570;2023-05-10T14:19:47;5.93;;;1.80;;
1370;SDS011;14306;49.942;11.570;2023-05-10T14:22:16;5.30;;;1.20;;
1370;SDS011;14306;49.942;11.570;2023-05-10T14:24:44;4.13;;;0.87;;
1370;SDS011;14306;49.942;11.570;2023-05-10T14:27:14;2.03;;;1.10;;
1370;SDS011;14306;49.942;11.570;2023-05-10T14:29:44;6.53;;;1.20;;
1370;SDS011;14306;49.942;11.570;2023-05-10T14:32:12;2.77;;;1.30;;
1370;SDS011;14306;49.942;11.570;2023-05-10T14:34:41;2.13;;;1.20;;
1370;SDS011;14306;49.942;11.570;2023-05-10T14:37:10;5.80;;;1.77;;
1370;SDS011;14306;49.942;11.570;2023-05-10T14:39:38;1.53;;;1.00;;
1370;SDS011;14306;49.942;11.570;2023-05-10T14:42:08;2.27;;;1.10;;
1370;SDS011;14306;49.942;11.570;2023-05-10T14:44:37;1.00;;;1.00;;
1370;SDS011;14306;49.942;11.570;2023-05-10T14:47:09;1.87;;;1.23;;
1370;SDS011;14306;49.942;11.570;2023-05-10T14:49:45;3.07;;;1.37;;
1370;SDS011;14306;49.942;11.570;2023-05-10T14:52:15;1.70;;;1.23;;
1370;SDS011;14306;49.942;11.570;2023-05-10T14:54:56;3.00;;;0.90;;
1370;SDS011;14306;49.942;11.570;2023-05-10T14:57:40;1.57;;;1.17;;
1370;SDS011;14306;49.942;11.570;2023-05-10T15:00:11;2.80;;;1.53;;
1370;SDS011;14306;49.942;11.570;2023-05-10T15:02:44;2.37;;;1.10;;
1370;SDS011;14306;49.942;11.570;2023-05-10T15:05:16;3.07;;;1.20;;
1370;SDS011;14306;49.942;11.570;2023-05-10T15:07:55;2.70;;;1.87;;
1370;SDS011;14306;49.942;11.570;2023-05-10T15:10:24;4.03;;;1.57;;
1370;SDS011;14306;49.942;11.570;2023-05-10T15:12:52;6.83;;;2.17;;
1370;SDS011;14306;49.942;11.570;2023-05-10T15:15:21;2.87;;;1.90;;